Time;durP1;ratioP1;P1;durP2;ratioP2;P2;SDS_P1;SDS_P2;PMS_P1;PMS_P2;Temp;Humidity;BMP_temperature;BMP_pressure;BME280_temperature;BME280_humidity;BME280_pressure;Samples;Min_cycle;Max_cycle;Signal;HPM_P1;HPM_P2
2021/05/28 02:29:06;;;;;;;3.97;2.30;;;9.70;99.60;;;;;;5154829;22;20255;-88
2021/05/28 02:31:33;;;;;;;2.92;1.85;;;9.70;99.70;;;;;;5068441;28;20648;-89
2021/05/28 02:33:59;;;;;;;2.47;2.20;;;9.70;99.70;;;;;;5067457;28;20700;-88
2021/05/28 02:36:26;;;;;;;2.72;2.22;;;9.70;99.80;;;;;;5074202;28;20205;-89
2021/05/28 02:38:52;;;;;;;2.38;2.17;;;9.80;99.70;;;;;;5072087;28;20260;-89
2021/05/28 02:41:18;;;;;;;2.58;2.10;;;9.80;99.50;;;;;;5049566;28;20225;-88
2021/05/28 02:43:45;;;;;;;4.40;2.50;;;9.80;99.40;;;;;;5066716;28;20330;-91
2021/05/28 02:46:12;;;;;;;2.60;2.13;;;9.60;99.30;;;;;;5064833;28;20305;-89
2021/05/28 02:48:38;;;;;;;3.13;1.90;;;9.50;99.50;;;;;;5047143;28;20248;-89
2021/05/28 02:51:05;;;;;;;2.05;1.95;;;9.60;99.90;;;;;;5048056;28;20198;-88
2021/05/28 03:01:17;;;;;;;2.83;2.53;;;9.30;99.40;;;;;;5073368;28;20281;-90
2021/05/28 03:03:44;;;;;;;2.58;2.38;;;9.20;99.70;;;;;;4982685;28;20700;-90
2021/05/28 03:06:10;;;;;;;2.53;2.17;;;9.10;99.80;;;;;;4964703;28;20189;-90
2021/05/28 03:08:37;;;;;;;2.42;2.22;;;9.10;99.90;;;;;;4981797;28;20291;-89
2021/05/28 03:11:03;;;;;;;4.57;2.25;;;9.30;99.90;;;;;;4986704;28;20209;-90
2021/05/28 03:13:30;;;;;;;3.97;2.42;;;9.20;99.90;;;;;;4998536;28;20229;-90
2021/05/28 03:15:56;;;;;;;3.42;2.45;;;9.10;99.90;;;;;;5044693;28;20262;-90
2021/05/28 03:18:25;;;;;;;2.67;2.40;;;9.10;99.90;;;;;;4985570;28;20239;-90
2021/05/28 03:21:07;;;;;;;5.15;2.42;;;9.10;99.90;;;;;;4979871;28;20220;-90
2021/05/28 03:23:36;;;;;;;2.45;2.25;;;9.10;99.90;;;;;;4967995;28;20240;-89
2021/05/28 03:26:02;;;;;;;5.07;2.80;;;9.10;99.90;;;;;;4986327;28;20545;-91
2021/05/28 03:28:29;;;;;;;3.08;2.30;;;9.10;99.90;;;;;;4985895;28;20224;-89
2021/05/28 03:30:56;;;;;;;3.08;2.03;;;9.10;99.90;;;;;;4973495;28;20269;-90
2021/05/28 03:33:23;;;;;;;2.53;2.33;;;9.20;99.90;;;;;;4985343;28;20238;-90
2021/05/28 03:35:49;;;;;;;3.38;2.60;;;9.30;99.90;;;;;;5008237;28;20222;-90
2021/05/28 03:38:16;;;;;;;3.45;2.75;;;9.40;99.90;;;;;;5033669;28;20240;-90
2021/05/28 03:40:42;;;;;;;2.50;2.30;;;9.40;99.80;;;;;;4986062;28;20315;-89
2021/05/28 03:43:09;;;;;;;2.90;2.60;;;9.50;99.80;;;;;;4986375;28;20316;-91
2021/05/28 03:45:35;;;;;;;2.83;2.60;;;9.50;99.90;;;;;;4988039;28;20273;-90
2021/05/28 03:48:01;;;;;;;3.55;2.65;;;9.50;99.90;;;;;;5023266;28;20250;-89
2021/05/28 03:50:28;;;;;;;3.70;2.70;;;9.50;99.80;;;;;;5024111;28;20204;-89
2021/05/28 03:52:55;;;;;;;2.63;2.42;;;9.60;99.80;;;;;;4982331;28;20251;-89
2021/05/28 03:55:21;;;;;;;2.72;2.42;;;9.70;99.70;;;;;;4969672;29;20217;-89
2021/05/28 03:57:47;;;;;;;3.33;2.97;;;9.90;99.50;;;;;;4971251;28;20238;-89
2021/05/28 04:00:15;;;;;;;3.17;2.90;;;9.90;99.30;;;;;;4984420;28;20274;-89
2021/05/28 04:02:42;;;;;;;3.97;3.20;;;10.00;98.70;;;;;;4981846;28;20214;-89
2021/05/28 04:05:10;;;;;;;3.10;2.45;;;10.00;98.70;;;;;;4982807;28;20211;-89
2021/05/28 04:07:38;;;;;;;4.65;2.67;;;10.00;98.60;;;;;;4981498;28;20201;-89
2021/05/28 04:17:41;;;;;;;3.33;2.53;;;10.10;98.10;;;;;;4988440;28;20594;-88
2021/05/28 05:10:09;;;;;;;3.17;2.60;;;11.70;94.00;;;;;;5088310;28;20243;-90
2021/05/28 05:12:35;;;;;;;2.88;2.38;;;11.80;93.50;;;;;;5084404;28;20261;-90
2021/05/28 05:15:02;;;;;;;3.08;2.38;;;11.90;93.30;;;;;;5069243;28;20194;-89
2021/05/28 05:17:28;;;;;;;3.55;2.40;;;12.00;93.00;;;;;;5068289;28;20757;-89
2021/05/28 05:19:55;;;;;;;4.38;3.20;;;12.10;92.60;;;;;;5069715;28;20244;-89
2021/05/28 05:22:21;;;;;;;4.13;3.10;;;12.20;92.10;;;;;;5069707;28;20269;-90
2021/05/28 05:24:48;;;;;;;4.70;2.90;;;12.40;91.60;;;;;;5070665;28;20196;-90
2021/05/28 05:27:15;;;;;;;3.95;2.88;;;12.50;91.20;;;;;;5072882;28;20194;-89
2021/05/28 05:29:42;;;;;;;3.33;2.60;;;12.50;91.00;;;;;;5070618;28;20202;-89
2021/05/28 05:36:19;;;;;;;3.88;2.30;;;12.70;90.90;;;;;;5072120;28;20664;-90
2021/05/28 05:42:39;;;;;;;2.67;2.10;;;12.90;90.90;;;;;;5071575;28;20189;-91
2021/05/28 07:05:09;;;;;;;4.88;2.42;;;14.40;70.40;;;;;;5070585;28;20225;-89
2021/05/28 07:07:35;;;;;;;4.43;2.55;;;14.30;68.20;;;;;;5057728;28;20315;-89
2021/05/28 07:10:02;;;;;;;2.95;2.55;;;14.60;66.00;;;;;;5007517;28;20192;-89
2021/05/28 07:12:29;;;;;;;5.40;2.90;;;14.80;63.20;;;;;;5006445;28;20240;-89
2021/05/28 07:14:55;;;;;;;2.88;2.67;;;14.40;60.00;;;;;;5019677;28;20204;-89
2021/05/28 07:17:22;;;;;;;2.75;2.50;;;14.40;60.00;;;;;;5074008;28;20615;-89
2021/05/28 07:19:48;;;;;;;5.88;2.80;;;14.60;60.00;;;;;;4996165;28;20228;-90
2021/05/28 07:22:16;;;;;;;3.35;2.90;;;14.90;57.30;;;;;;4983635;28;20207;-90
2021/05/28 07:24:42;;;;;;;2.92;2.50;;;15.10;59.40;;;;;;4999035;28;20234;-90
2021/05/28 07:27:09;;;;;;;4.10;2.83;;;15.10;59.00;;;;;;5013921;28;20523;-90
2021/05/28 07:29:36;;;;;;;3.35;2.83;;;15.10;57.80;;;;;;5002593;28;20220;-89
2021/05/28 07:32:03;;;;;;;4.55;2.80;;;15.00;62.70;;;;;;4998615;28;20268;-89
2021/05/28 07:34:30;;;;;;;5.05;2.55;;;15.10;59.70;;;;;;4996588;28;20235;-90
2021/05/28 07:36:56;;;;;;;2.90;2.38;;;15.40;60.00;;;;;;4993844;28;20212;-89
2021/05/28 07:39:24;;;;;;;4.07;2.80;;;15.80;57.60;;;;;;5012973;28;20228;-89
2021/05/28 07:41:50;;;;;;;4.82;2.90;;;16.20;54.00;;;;;;5000837;28;20218;-89
2021/05/28 07:44:17;;;;;;;2.90;2.60;;;16.10;52.40;;;;;;4999898;28;20236;-89
2021/05/28 07:46:44;;;;;;;3.60;2.40;;;16.00;53.80;;;;;;5003091;28;20249;-89
2021/05/28 07:49:11;;;;;;;4.68;2.85;;;16.00;55.50;;;;;;5069600;28;20231;-89
2021/05/28 07:51:37;;;;;;;2.97;2.60;;;16.10;52.30;;;;;;5008541;28;20276;-90
2021/05/28 07:54:05;;;;;;;4.35;3.20;;;16.40;52.70;;;;;;5003695;28;20262;-90
2021/05/28 07:56:33;;;;;;;4.03;2.83;;;16.50;50.50;;;;;;5002538;28;20192;-89
2021/05/28 07:59:00;;;;;;;3.20;2.53;;;16.40;51.10;;;;;;5008347;28;20259;-90
2021/05/28 08:01:27;;;;;;;3.15;2.40;;;16.40;52.60;;;;;;4999253;28;20234;-90
2021/05/28 08:03:55;;;;;;;3.72;2.40;;;16.50;49.60;;;;;;5003613;28;20257;-89
2021/05/28 08:06:21;;;;;;;4.03;3.00;;;16.50;50.70;;;;;;5003630;28;20286;-90
2021/05/28 08:08:48;;;;;;;4.95;2.55;;;16.70;51.00;;;;;;5001439;28;20258;-89
2021/05/28 08:11:14;;;;;;;4.47;2.55;;;16.80;48.00;;;;;;5003861;28;20204;-91
2021/05/28 08:13:42;;;;;;;4.10;2.80;;;16.50;49.60;;;;;;4994637;28;20244;-91
2021/05/28 08:16:08;;;;;;;4.68;2.80;;;16.50;49.60;;;;;;4994386;28;20214;-90
2021/05/28 08:18:35;;;;;;;6.53;2.75;;;16.10;51.10;;;;;;5068718;28;20247;-90
2021/05/28 08:21:02;;;;;;;5.32;2.97;;;15.80;52.10;;;;;;4990459;28;20228;-89
2021/05/28 08:23:29;;;;;;;6.95;2.92;;;15.50;53.90;;;;;;5001277;28;20318;-90
2021/05/28 08:25:55;;;;;;;4.22;3.22;;;15.40;55.10;;;;;;5000096;28;20220;-90
2021/05/28 08:28:22;;;;;;;3.95;3.20;;;15.30;55.30;;;;;;4985457;28;20228;-90
2021/05/28 08:30:50;;;;;;;5.07;2.88;;;15.20;54.60;;;;;;4993866;28;20208;-89
2021/05/28 08:33:17;;;;;;;3.53;3.00;;;15.30;55.80;;;;;;4992657;28;20232;-89
2021/05/28 08:35:44;;;;;;;4.65;2.90;;;15.60;55.20;;;;;;4986403;28;20261;-89
2021/05/28 08:38:11;;;;;;;4.30;2.58;;;15.80;52.10;;;;;;4999013;28;20319;-89
2021/05/28 08:40:38;;;;;;;4.65;2.60;;;16.10;52.40;;;;;;5000770;28;20230;-90
2021/05/28 08:43:08;;;;;;;3.42;2.40;;;17.40;48.20;;;;;;4991955;28;20247;-91
2021/05/28 08:45:41;;;;;;;4.15;2.50;;;19.80;39.90;;;;;;4987480;28;20220;-90
2021/05/28 08:48:10;;;;;;;4.28;2.50;;;21.20;34.00;;;;;;4981296;28;20232;-87
2021/05/28 08:50:38;;;;;;;6.10;2.63;;;21.50;33.30;;;;;;4984119;28;20675;-88
2021/05/28 08:53:06;;;;;;;4.68;2.92;;;21.00;32.90;;;;;;4983521;28;20276;-89
2021/05/28 08:55:33;;;;;;;4.78;3.30;;;19.90;36.40;;;;;;4987092;28;20211;-89
2021/05/28 08:58:04;;;;;;;4.85;3.15;;;18.70;38.40;;;;;;5055123;28;20239;-89
2021/05/28 09:00:31;;;;;;;5.72;3.35;;;17.60;42.30;;;;;;5002450;28;20242;-89
2021/05/28 09:02:57;;;;;;;6.30;3.42;;;16.90;45.80;;;;;;4989547;28;20585;-89
2021/05/28 09:05:25;;;;;;;4.70;3.70;;;16.70;47.60;;;;;;4996300;28;20223;-87
2021/05/28 09:07:56;;;;;;;4.20;2.97;;;16.50;49.40;;;;;;4994581;28;20238;-88
2021/05/28 09:10:31;;;;;;;5.90;3.00;;;18.60;45.50;;;;;;4986590;28;20212;-88
2021/05/28 09:13:24;;;;;;;8.68;5.30;;;21.30;35.10;;;;;;4981419;28;20717;-85
2021/05/28 09:16:03;;;;;;;4.22;3.00;;;22.20;32.00;;;;;;4994366;28;20216;-87
2021/05/28 09:18:47;;;;;;;4.95;3.10;;;22.70;30.40;;;;;;4985088;28;20227;-87
2021/05/28 09:21:23;;;;;;;4.10;2.90;;;22.20;31.00;;;;;;4975764;28;20553;-86
2021/05/28 09:23:50;;;;;;;3.22;2.85;;;21.70;33.50;;;;;;4987876;28;20310;-89
2021/05/28 09:26:17;;;;;;;3.20;2.90;;;20.90;32.80;;;;;;4990780;28;20216;-89
2021/05/28 09:28:45;;;;;;;4.72;2.75;;;19.90;33.90;;;;;;4987585;28;20301;-89
2021/05/28 09:31:14;;;;;;;4.53;2.90;;;19.20;35.20;;;;;;4987228;28;20208;-88
2021/05/28 09:33:46;;;;;;;3.40;2.53;;;18.60;37.50;;;;;;4982788;28;20237;-89
2021/05/28 09:36:16;;;;;;;3.50;2.90;;;19.00;40.00;;;;;;4991883;28;20279;-88
2021/05/28 09:38:58;;;;;;;5.07;3.17;;;19.60;40.60;;;;;;5018088;28;20224;-89
2021/05/28 09:41:49;;;;;;;3.92;2.90;;;19.80;37.50;;;;;;4988025;28;20222;-89
2021/05/28 09:44:19;;;;;;;3.85;2.97;;;20.00;37.40;;;;;;4975642;28;20236;-89
2021/05/28 09:47:18;;;;;;;4.25;2.63;;;19.70;34.50;;;;;;4981411;28;20211;-89
2021/05/28 09:49:46;;;;;;;2.60;2.40;;;20.70;32.60;;;;;;4979479;28;20228;-85
2021/05/28 09:52:16;;;;;;;3.10;2.33;;;22.40;31.00;;;;;;4976206;28;20674;-85
2021/05/28 09:54:55;;;;;;;3.25;2.25;;;23.00;28.40;;;;;;4979058;28;20229;-86
2021/05/28 09:57:30;;;;;;;2.50;2.30;;;21.00;31.20;;;;;;4984625;28;20627;-86
2021/05/28 09:59:56;;;;;;;3.55;2.50;;;20.70;32.70;;;;;;4998064;28;20220;-88
2021/05/28 10:02:28;;;;;;;2.90;2.60;;;20.40;33.10;;;;;;4997492;28;20204;-89
2021/05/28 10:04:56;;;;;;;2.47;2.15;;;20.00;34.90;;;;;;5004407;28;20219;-86
2021/05/28 10:07:25;;;;;;;2.70;2.50;;;19.40;38.70;;;;;;5002706;28;20207;-89
2021/05/28 10:09:53;;;;;;;4.38;2.88;;;18.80;35.80;;;;;;4997704;28;20204;-88
2021/05/28 10:12:20;;;;;;;4.18;2.78;;;18.40;37.10;;;;;;4997245;28;20198;-87
2021/05/28 10:14:49;;;;;;;3.67;2.70;;;18.20;40.00;;;;;;4998045;28;20233;-87
2021/05/28 10:17:16;;;;;;;3.55;2.72;;;18.20;40.00;;;;;;5003691;28;20278;-87
2021/05/28 10:19:42;;;;;;;3.05;2.65;;;18.10;39.30;;;;;;5005558;28;20294;-90
2021/05/28 10:22:08;;;;;;;3.38;2.53;;;17.80;38.20;;;;;;5020844;28;20218;-87
2021/05/28 10:24:36;;;;;;;3.53;2.50;;;18.00;41.50;;;;;;5057971;28;20239;-87
2021/05/28 10:27:03;;;;;;;4.57;3.17;;;18.40;40.60;;;;;;5003686;28;20207;-87
2021/05/28 10:29:30;;;;;;;3.50;2.88;;;18.40;41.00;;;;;;4993015;28;20302;-89
2021/05/28 10:31:58;;;;;;;5.13;2.88;;;18.70;40.40;;;;;;5003300;28;20211;-88
2021/05/28 10:34:27;;;;;;;2.97;2.50;;;18.60;41.30;;;;;;5002572;28;20265;-88
2021/05/28 10:36:54;;;;;;;4.07;2.58;;;18.80;40.10;;;;;;5003806;28;20208;-87
2021/05/28 10:39:21;;;;;;;2.67;2.47;;;18.70;39.40;;;;;;5029902;28;20251;-88
2021/05/28 10:41:52;;;;;;;4.38;2.85;;;18.70;39.60;;;;;;5044704;28;20291;-87
2021/05/28 10:44:21;;;;;;;5.05;2.85;;;18.50;39.50;;;;;;4996285;28;20221;-87
2021/05/28 10:47:18;;;;;;;4.85;3.17;;;18.60;38.30;;;;;;4990655;28;20208;-88
2021/05/28 10:49:45;;;;;;;5.78;3.10;;;18.70;38.50;;;;;;4985873;28;20248;-88
2021/05/28 10:52:15;;;;;;;5.47;3.58;;;18.70;39.90;;;;;;4987678;28;20204;-89
2021/05/28 10:54:54;;;;;;;3.60;3.30;;;19.00;39.90;;;;;;5019631;28;20232;-89
2021/05/28 10:57:41;;;;;;;5.35;3.40;;;19.30;37.90;;;;;;4995867;28;20242;-88
2021/05/28 11:00:11;;;;;;;3.17;2.90;;;19.40;40.00;;;;;;4992000;28;20219;-89
2021/05/28 11:02:45;;;;;;;4.93;3.00;;;19.30;37.90;;;;;;4995199;28;20242;-89
2021/05/28 11:05:12;;;;;;;4.90;3.22;;;19.50;37.90;;;;;;4993812;28;20279;-89
2021/05/28 11:07:43;;;;;;;3.80;2.90;;;19.50;37.50;;;;;;4996415;28;20766;-88
2021/05/28 11:10:24;;;;;;;4.18;2.60;;;19.70;38.90;;;;;;4993096;28;20722;-88
2021/05/28 11:12:54;;;;;;;3.10;2.80;;;19.90;36.60;;;;;;4982301;28;20242;-89
2021/05/28 11:15:27;;;;;;;3.65;2.80;;;19.90;36.50;;;;;;4995112;28;20232;-88
2021/05/28 11:17:59;;;;;;;3.28;2.97;;;20.10;35.30;;;;;;4999253;28;20232;-87
2021/05/28 11:20:31;;;;;;;3.97;3.20;;;20.10;36.20;;;;;;5074025;28;20232;-88
2021/05/28 11:22:59;;;;;;;4.70;3.03;;;20.30;37.40;;;;;;5003010;28;20252;-88
2021/05/28 11:25:31;;;;;;;6.47;4.50;;;20.50;37.20;;;;;;4988330;28;20200;-88
2021/05/28 11:28:09;;;;;;;6.38;3.63;;;20.70;37.70;;;;;;4992201;28;20228;-88
2021/05/28 11:30:46;;;;;;;4.78;3.70;;;20.60;36.70;;;;;;4994719;28;20623;-89
2021/05/28 11:33:35;;;;;;;4.35;3.90;;;20.60;37.00;;;;;;4983562;28;20224;-88
2021/05/28 11:36:38;;;;;;;3.88;3.35;;;20.40;36.50;;;;;;5016238;28;20203;-88
2021/05/28 11:39:07;;;;;;;5.90;3.58;;;20.30;37.60;;;;;;4987675;28;20220;-87
2021/05/28 11:41:59;;;;;;;3.38;3.03;;;20.20;35.40;;;;;;4985859;28;20220;-87
2021/05/28 11:44:28;;;;;;;3.40;3.10;;;20.40;36.50;;;;;;4999842;28;20227;-87
2021/05/28 11:46:54;;;;;;;4.28;3.13;;;20.20;37.00;;;;;;4995436;28;20344;-87
2021/05/28 11:49:23;;;;;;;5.30;3.70;;;20.40;35.30;;;;;;5011459;28;20232;-88
2021/05/28 11:52:02;;;;;;;4.45;3.20;;;19.90;36.20;;;;;;5005310;28;20268;-87
2021/05/28 11:54:30;;;;;;;4.05;3.42;;;20.20;37.80;;;;;;5021634;28;20332;-87
2021/05/28 11:56:59;;;;;;;5.65;3.50;;;20.10;36.50;;;;;;4986508;28;20209;-88
2021/05/28 11:59:57;;;;;;;5.30;3.40;;;20.20;37.70;;;;;;4995527;28;20231;-87
2021/05/28 12:02:53;;;;;;;4.38;3.67;;;19.90;36.40;;;;;;5012695;28;20206;-88
2021/05/28 12:05:24;;;;;;;4.07;2.80;;;19.80;37.30;;;;;;5001683;28;20262;-88
2021/05/28 12:07:52;;;;;;;3.50;2.90;;;19.60;37.60;;;;;;5004619;28;20227;-89
2021/05/28 12:10:20;;;;;;;6.15;3.80;;;19.90;37.80;;;;;;5008216;28;20203;-88
2021/05/28 12:12:54;;;;;;;3.03;2.83;;;19.10;37.00;;;;;;5004516;28;20297;-89
2021/05/28 12:15:23;;;;;;;3.80;2.90;;;19.60;38.00;;;;;;5006163;28;20259;-87
2021/05/28 12:17:50;;;;;;;3.55;3.22;;;19.90;35.80;;;;;;5005265;28;20246;-88
2021/05/28 12:20:19;;;;;;;3.45;2.83;;;19.80;37.00;;;;;;4994814;28;20235;-87
2021/05/28 12:23:07;;;;;;;5.20;3.00;;;19.70;34.90;;;;;;4994460;28;20235;-88
2021/05/28 12:25:36;;;;;;;4.40;4.00;;;19.70;37.60;;;;;;4993357;28;20252;-87
2021/05/28 12:28:14;;;;;;;5.05;3.60;;;19.70;36.80;;;;;;5005979;28;20232;-87
2021/05/28 12:30:43;;;;;;;4.00;3.63;;;19.50;40.00;;;;;;5004014;28;20208;-87
2021/05/28 12:33:09;;;;;;;4.65;4.13;;;19.40;39.00;;;;;;5004091;28;20235;-87
2021/05/28 12:35:36;;;;;;;5.00;3.95;;;18.90;40.80;;;;;;5004973;28;20651;-88
2021/05/28 12:38:05;;;;;;;3.67;3.08;;;18.80;39.40;;;;;;4988980;28;20569;-87
2021/05/28 12:40:32;;;;;;;4.15;3.50;;;18.90;40.50;;;;;;5001997;28;20228;-87
2021/05/28 12:43:04;;;;;;;3.60;3.30;;;19.20;40.10;;;;;;5002560;28;20235;-87
2021/05/28 12:45:39;;;;;;;4.15;3.22;;;19.90;38.60;;;;;;5002763;28;20229;-90
2021/05/28 12:48:07;;;;;;;5.18;3.38;;;20.10;38.00;;;;;;4996652;28;20238;-88
2021/05/28 12:50:35;;;;;;;4.65;3.30;;;20.30;37.10;;;;;;5003697;28;20204;-89
2021/05/28 12:53:04;;;;;;;3.92;3.40;;;20.30;35.50;;;;;;5001949;28;20258;-87
2021/05/28 12:55:35;;;;;;;5.30;3.50;;;20.30;36.40;;;;;;5001302;28;20299;-88
2021/05/28 12:58:02;;;;;;;4.38;3.63;;;20.60;37.30;;;;;;5001159;28;20288;-88
2021/05/28 13:00:34;;;;;;;4.10;3.63;;;20.30;35.50;;;;;;5004994;28;20266;-89
2021/05/28 13:03:00;;;;;;;4.45;3.10;;;19.90;34.90;;;;;;4999692;28;20235;-88
2021/05/28 13:05:37;;;;;;;3.42;3.10;;;19.70;36.50;;;;;;5000519;28;20210;-87
2021/05/28 13:08:31;;;;;;;5.05;3.03;;;19.40;35.30;;;;;;4999726;28;20223;-86
2021/05/28 13:10:57;;;;;;;5.85;2.92;;;18.90;36.30;;;;;;4997030;28;20203;-87
2021/05/28 13:13:24;;;;;;;3.17;2.90;;;18.70;38.10;;;;;;5000312;28;20299;-87
2021/05/28 13:15:51;;;;;;;6.57;3.65;;;18.50;38.80;;;;;;5005143;28;20239;-87
2021/05/28 13:18:18;;;;;;;3.90;3.13;;;18.40;38.10;;;;;;5005892;28;20239;-87
2021/05/28 13:20:51;;;;;;;3.60;2.90;;;18.20;39.60;;;;;;5019687;28;20589;-90
2021/05/28 13:23:21;;;;;;;3.53;3.05;;;18.20;40.70;;;;;;5037698;28;20242;-90
2021/05/28 13:25:48;;;;;;;7.07;3.00;;;18.30;38.40;;;;;;4995992;28;20200;-90
2021/05/28 13:28:17;;;;;;;3.38;3.08;;;18.50;40.20;;;;;;4993632;28;20235;-90
2021/05/28 13:30:45;;;;;;;4.25;3.35;;;18.70;39.00;;;;;;5010265;28;20203;-88
2021/05/28 13:33:15;;;;;;;4.65;2.95;;;18.90;38.80;;;;;;5057836;28;20227;-87
2021/05/28 13:35:42;;;;;;;4.20;3.67;;;18.80;38.10;;;;;;5004119;28;20196;-88
2021/05/28 13:38:09;;;;;;;3.78;3.35;;;18.50;37.90;;;;;;4985965;28;20264;-87
2021/05/28 13:40:43;;;;;;;3.92;3.42;;;18.50;39.10;;;;;;4999739;28;20214;-87
2021/05/28 13:43:09;;;;;;;5.30;3.50;;;18.80;37.70;;;;;;4992021;28;20284;-87
2021/05/28 13:45:36;;;;;;;3.42;3.13;;;18.70;38.10;;;;;;5005808;28;20234;-87
2021/05/28 13:48:03;;;;;;;3.50;3.20;;;18.70;41.10;;;;;;5004503;28;20658;-87
2021/05/28 13:50:35;;;;;;;3.63;3.28;;;18.50;40.00;;;;;;4997686;28;20260;-89
2021/05/28 13:53:05;;;;;;;5.88;3.40;;;18.50;39.80;;;;;;5002750;28;20405;-87
2021/05/28 13:55:33;;;;;;;4.65;3.20;;;18.60;41.10;;;;;;5003977;28;20286;-88
2021/05/28 13:58:00;;;;;;;4.40;3.30;;;18.70;39.80;;;;;;5005060;28;20295;-86
2021/05/28 14:00:27;;;;;;;5.28;3.17;;;18.80;39.30;;;;;;4998265;28;20224;-90
2021/05/28 14:02:58;;;;;;;6.63;3.53;;;19.00;40.00;;;;;;5074316;28;20228;-87
2021/05/28 14:05:25;;;;;;;4.32;3.47;;;19.00;39.60;;;;;;4997435;28;20201;-89
2021/05/28 14:07:53;;;;;;;4.25;2.97;;;19.00;38.70;;;;;;4994077;28;20231;-90
2021/05/28 14:10:20;;;;;;;4.70;2.85;;;19.00;39.20;;;;;;4998252;28;20231;-86
2021/05/28 14:12:47;;;;;;;2.88;2.60;;;19.10;38.40;;;;;;5048424;28;20248;-89
2021/05/28 14:15:18;;;;;;;2.83;2.40;;;19.10;38.20;;;;;;5081522;28;20215;-90
2021/05/28 14:17:45;;;;;;;2.92;2.50;;;19.40;37.70;;;;;;4990947;28;20242;-89
2021/05/28 14:20:12;;;;;;;6.22;2.47;;;19.70;36.00;;;;;;4990799;28;20203;-91
2021/05/28 14:22:39;;;;;;;2.60;2.40;;;19.50;35.00;;;;;;4990832;28;20235;-89
2021/05/28 14:25:07;;;;;;;4.28;3.45;;;19.20;37.00;;;;;;4983092;28;20651;-90
2021/05/28 14:27:33;;;;;;;7.10;3.30;;;19.00;38.50;;;;;;4975206;28;20251;-87
2021/05/28 14:30:01;;;;;;;4.78;3.90;;;18.60;40.00;;;;;;4989746;28;20222;-86
2021/05/28 14:32:27;;;;;;;4.18;3.28;;;18.40;40.20;;;;;;5001874;28;20269;-89
2021/05/28 14:34:54;;;;;;;5.40;3.80;;;18.20;42.30;;;;;;4990910;28;20239;-90
2021/05/28 14:37:21;;;;;;;5.38;3.95;;;18.00;41.40;;;;;;4985617;28;20247;-91
2021/05/28 14:39:47;;;;;;;5.07;3.75;;;17.60;42.50;;;;;;5001401;28;20216;-88
2021/05/28 14:42:14;;;;;;;4.00;3.70;;;17.60;43.60;;;;;;4997423;28;20244;-89
2021/05/28 14:44:40;;;;;;;3.40;3.10;;;17.60;42.50;;;;;;5000366;28;20237;-88
2021/05/28 14:47:08;;;;;;;4.93;3.00;;;17.50;45.20;;;;;;4993267;28;20272;-89
2021/05/28 14:49:35;;;;;;;4.93;3.42;;;17.90;46.30;;;;;;4998209;28;20230;-89
2021/05/28 14:52:01;;;;;;;5.88;4.00;;;18.00;42.80;;;;;;4995062;28;20363;-87
2021/05/28 14:54:29;;;;;;;4.90;4.20;;;17.70;43.10;;;;;;5007312;28;20216;-89
2021/05/28 14:56:56;;;;;;;6.72;4.03;;;17.50;43.20;;;;;;5002575;28;20200;-88
2021/05/28 14:59:22;;;;;;;4.38;3.92;;;17.50;43.60;;;;;;5041840;28;20224;-88
2021/05/28 15:01:48;;;;;;;4.80;3.85;;;17.30;43.80;;;;;;4994561;28;20238;-88
2021/05/28 15:04:16;;;;;;;4.57;3.50;;;17.30;43.50;;;;;;5004627;28;20258;-89
2021/05/28 15:06:42;;;;;;;4.43;3.85;;;17.50;43.40;;;;;;4999247;28;20272;-88
2021/05/28 15:09:09;;;;;;;4.82;3.90;;;17.60;43.00;;;;;;5001698;28;20303;-89
2021/05/28 15:11:36;;;;;;;6.30;3.90;;;17.50;44.70;;;;;;4997423;28;20243;-90
2021/05/28 15:14:02;;;;;;;5.97;3.90;;;17.40;43.60;;;;;;4997677;28;20230;-88
2021/05/28 15:16:29;;;;;;;4.30;3.90;;;17.30;43.50;;;;;;5005492;28;20203;-88
2021/05/28 15:18:55;;;;;;;3.97;3.58;;;17.30;44.60;;;;;;5031094;28;20296;-88
2021/05/28 15:21:24;;;;;;;4.60;3.55;;;17.10;44.70;;;;;;5029463;28;20292;-89
2021/05/28 15:23:54;;;;;;;4.75;3.80;;;17.10;45.80;;;;;;5074411;28;20228;-89
2021/05/28 15:26:21;;;;;;;6.70;3.58;;;17.00;44.60;;;;;;4995971;28;20271;-87
2021/05/28 15:28:48;;;;;;;4.25;3.85;;;16.80;47.30;;;;;;4997423;28;20621;-90
2021/05/28 15:31:15;;;;;;;4.40;3.33;;;16.60;46.70;;;;;;5002548;28;20724;-90
2021/05/28 15:33:42;;;;;;;6.43;3.60;;;16.50;47.20;;;;;;5068423;28;20823;-90
2021/05/28 15:36:09;;;;;;;4.35;3.55;;;16.40;51.10;;;;;;4996167;28;20563;-90
2021/05/28 15:38:37;;;;;;;4.72;3.95;;;16.40;49.40;;;;;;4991995;28;20299;-90
2021/05/28 15:41:05;;;;;;;6.55;3.50;;;16.30;48.30;;;;;;4991418;28;20718;-90
2021/05/28 15:43:32;;;;;;;5.10;4.10;;;16.30;49.20;;;;;;4986154;28;20228;-89
2021/05/28 15:46:00;;;;;;;5.15;4.10;;;16.20;48.80;;;;;;4980200;28;20290;-90
2021/05/28 15:48:26;;;;;;;4.90;3.67;;;16.10;48.60;;;;;;4989886;28;20224;-89
2021/05/28 15:50:53;;;;;;;4.20;3.65;;;16.00;49.00;;;;;;4991861;28;20200;-90
2021/05/28 15:53:19;;;;;;;5.03;3.25;;;16.00;49.70;;;;;;4987885;28;20322;-89
2021/05/28 15:55:50;;;;;;;4.90;3.65;;;16.00;49.40;;;;;;4993766;28;20315;-90
2021/05/28 15:58:18;;;;;;;4.93;3.30;;;16.00;49.50;;;;;;4981585;28;20332;-89
2021/05/28 16:00:45;;;;;;;5.53;3.33;;;16.10;48.80;;;;;;4986060;28;20221;-89
2021/05/28 16:03:14;;;;;;;4.55;3.47;;;16.20;49.10;;;;;;4994397;28;20235;-89
2021/05/28 16:05:42;;;;;;;4.15;3.60;;;16.20;48.80;;;;;;4993868;28;20200;-90
2021/05/28 16:08:12;;;;;;;9.00;3.50;;;16.20;47.50;;;;;;4981365;28;20243;-89
2021/05/28 16:10:40;;;;;;;5.65;4.00;;;16.10;47.20;;;;;;4993272;28;20238;-90
2021/05/28 16:13:09;;;;;;;4.05;3.60;;;16.00;49.10;;;;;;4978830;28;20246;-91
2021/05/28 16:15:35;;;;;;;7.93;3.58;;;16.00;50.00;;;;;;4984968;28;20550;-90
2021/05/28 16:18:02;;;;;;;4.05;3.47;;;16.00;48.00;;;;;;4982963;28;20242;-90
2021/05/28 16:20:28;;;;;;;5.05;4.15;;;16.00;47.50;;;;;;4989948;28;20200;-90
2021/05/28 16:22:55;;;;;;;3.47;3.08;;;16.00;47.60;;;;;;4990207;28;20250;-89
2021/05/28 16:25:24;;;;;;;4.07;3.58;;;16.00;47.50;;;;;;4989462;28;20216;-90
2021/05/28 16:27:50;;;;;;;3.50;3.20;;;16.00;48.20;;;;;;4990049;28;20585;-89
2021/05/28 16:30:19;;;;;;;3.60;2.95;;;15.90;47.20;;;;;;4990338;28;20200;-92
2021/05/28 16:32:45;;;;;;;6.57;3.35;;;15.80;47.50;;;;;;4980206;28;20246;-90
2021/05/28 16:35:13;;;;;;;6.88;3.67;;;15.80;47.90;;;;;;4985660;28;20197;-89
2021/05/28 16:37:40;;;;;;;4.80;3.45;;;15.70;47.30;;;;;;4989369;28;20232;-90
2021/05/28 16:40:07;;;;;;;4.93;3.58;;;15.70;47.60;;;;;;4984998;28;20228;-90
2021/05/28 16:42:34;;;;;;;3.30;3.00;;;15.70;47.30;;;;;;4985435;28;22587;-91
2021/05/28 16:45:00;;;;;;;5.32;3.20;;;15.70;47.30;;;;;;4986999;28;20205;-90
2021/05/28 16:47:28;;;;;;;6.80;3.80;;;15.60;48.20;;;;;;4980435;28;20219;-91
2021/05/28 16:50:11;;;;;;;5.45;3.45;;;15.50;48.00;;;;;;4985961;28;20253;-91
2021/05/28 16:52:37;;;;;;;4.05;3.65;;;15.50;47.60;;;;;;4986803;28;20267;-92
2021/05/28 16:55:05;;;;;;;3.35;3.05;;;15.60;47.20;;;;;;4978187;28;20230;-90
2021/05/28 16:57:31;;;;;;;3.30;3.00;;;15.60;47.90;;;;;;4986572;28;20490;-90
2021/05/28 16:59:58;;;;;;;4.57;2.90;;;15.60;48.20;;;;;;4990033;28;20539;-90
2021/05/28 17:02:24;;;;;;;3.85;3.13;;;15.60;47.80;;;;;;4985734;28;20245;-91
2021/05/28 17:04:51;;;;;;;3.25;2.95;;;15.60;47.70;;;;;;4989146;28;20272;-89
2021/05/28 17:07:19;;;;;;;4.00;3.40;;;15.70;48.10;;;;;;4979790;28;20226;-89
2021/05/28 17:09:45;;;;;;;4.93;3.20;;;15.70;49.20;;;;;;4983254;28;20245;-90
2021/05/28 17:12:11;;;;;;;3.35;3.05;;;15.60;49.60;;;;;;4990088;28;20200;-90
2021/05/28 17:14:38;;;;;;;5.85;3.15;;;15.50;48.40;;;;;;4983724;28;20224;-89
2021/05/28 17:17:05;;;;;;;4.03;3.40;;;15.40;48.50;;;;;;4980672;28;20260;-90
2021/05/28 17:19:32;;;;;;;4.15;3.30;;;15.30;48.60;;;;;;4989208;28;20758;-90
2021/05/28 17:21:59;;;;;;;3.78;3.05;;;15.20;50.40;;;;;;4975987;28;20680;-90
2021/05/28 17:24:25;;;;;;;5.35;3.33;;;15.10;49.50;;;;;;4982630;28;20236;-90
2021/05/28 17:26:53;;;;;;;4.30;3.05;;;15.10;51.50;;;;;;4986391;28;20246;-90
2021/05/28 17:29:19;;;;;;;5.80;4.80;;;15.20;51.40;;;;;;4978445;28;20252;-91
2021/05/28 17:31:48;;;;;;;3.97;2.83;;;15.20;50.50;;;;;;4979526;28;20205;-90
2021/05/28 17:34:28;;;;;;;3.03;2.75;;;15.30;51.40;;;;;;4989499;28;20235;-90
2021/05/28 17:37:06;;;;;;;5.63;2.72;;;15.20;50.80;;;;;;4983535;28;20211;-90
2021/05/28 17:39:33;;;;;;;4.95;3.05;;;15.20;51.50;;;;;;4977059;28;20231;-90
2021/05/28 17:42:00;;;;;;;3.63;3.00;;;15.20;50.30;;;;;;4982043;28;20285;-90
2021/05/28 17:44:28;;;;;;;4.28;3.25;;;15.20;50.40;;;;;;4992615;28;20230;-89
2021/05/28 17:46:54;;;;;;;3.08;2.80;;;15.10;50.80;;;;;;4993109;28;20203;-90
2021/05/28 17:49:20;;;;;;;3.40;3.10;;;15.10;51.50;;;;;;4991092;28;20281;-90
2021/05/28 17:51:47;;;;;;;4.90;3.13;;;15.00;51.30;;;;;;4994464;28;20249;-90
2021/05/28 17:54:16;;;;;;;4.55;3.28;;;15.00;49.80;;;;;;4996212;28;20232;-89
2021/05/28 17:56:43;;;;;;;3.33;2.88;;;14.90;51.00;;;;;;4994654;28;20283;-89
2021/05/28 17:59:09;;;;;;;4.75;2.90;;;14.90;51.00;;;;;;4975221;28;20238;-90